createdAt,value
2022-09-14T00:03:23.700Z,1008.88
2022-09-14T00:08:16.135Z,1008.85
2022-09-14T00:13:08.685Z,1008.87
2022-09-14T00:18:01.325Z,1008.91
2022-09-14T00:22:54.002Z,1008.94
2022-09-14T00:27:46.625Z,1008.83
2022-09-14T00:32:39.428Z,1008.69
2022-09-14T00:37:32.047Z,1008.6
2022-09-14T00:42:24.697Z,1008.67
2022-09-14T00:47:17.283Z,1008.58
2022-09-14T00:52:10.117Z,1008.56
2022-09-14T00:57:02.717Z,1008.66
2022-09-14T01:01:55.570Z,1008.64
2022-09-14T01:06:48.081Z,1008.54
2022-09-14T01:11:41.056Z,1008.6
2022-09-14T01:16:33.604Z,1008.65
2022-09-14T01:21:26.016Z,1008.61
2022-09-14T01:26:18.735Z,1008.54
2022-09-14T01:31:11.749Z,1008.6
2022-09-14T01:36:04.219Z,1008.64
2022-09-14T01:40:57.033Z,1008.56
2022-09-14T01:45:49.921Z,1008.43
2022-09-14T01:50:42.228Z,1008.41
2022-09-14T01:55:34.960Z,1008.45
2022-09-14T02:00:27.622Z,1008.39
2022-09-14T02:05:20.316Z,1008.39
2022-09-14T02:10:13.015Z,1008.35
2022-09-14T02:15:05.418Z,1008.4
2022-09-14T02:19:57.906Z,1008.41
2022-09-14T02:24:50.337Z,1008.27
2022-09-14T02:29:43.017Z,1008.3
2022-09-14T02:34:35.598Z,1008.09
2022-09-14T02:39:28.027Z,1008
2022-09-14T02:44:20.574Z,1008.01
2022-09-14T02:49:13.330Z,1008
2022-09-14T02:54:06.180Z,1007.98
2022-09-14T02:58:58.929Z,1007.94
2022-09-14T03:03:51.630Z,1007.89
2022-09-14T03:08:44.404Z,1007.86
2022-09-14T03:13:37.033Z,1007.76
2022-09-14T03:18:29.594Z,1007.88
2022-09-14T03:23:22.220Z,1007.9
2022-09-14T03:28:15.202Z,1007.88
2022-09-14T03:33:07.715Z,1007.74
2022-09-14T03:38:00.236Z,1007.68
2022-09-14T03:42:53.080Z,1007.7
2022-09-14T03:47:45.451Z,1007.6
2022-09-14T03:52:37.927Z,1007.68
2022-09-14T03:57:30.070Z,1007.68
2022-09-14T04:02:22.681Z,1007.59
2022-09-14T04:07:15.367Z,1007.63
2022-09-14T04:12:08.069Z,1007.52
2022-09-14T04:17:00.691Z,1007.47
2022-09-14T04:21:53.129Z,1007.49
2022-09-14T04:26:45.834Z,1007.48
2022-09-14T04:31:44.159Z,1007.53
2022-09-14T04:36:35.729Z,1007.42
2022-09-14T04:41:28.171Z,1007.4
2022-09-14T04:46:21.016Z,1007.34
2022-09-14T04:51:13.729Z,1007.37
2022-09-14T04:56:06.573Z,1007.35
2022-09-14T05:00:53.593Z,1007.4
2022-09-14T05:05:47.026Z,1007.41
2022-09-14T05:10:40.613Z,1007.4
2022-09-14T05:15:33.289Z,1007.43
2022-09-14T05:20:26.159Z,1007.45
2022-09-14T05:25:18.905Z,1007.47
2022-09-14T05:30:11.410Z,1007.42
2022-09-14T05:35:04.106Z,1007.34
2022-09-14T05:39:56.743Z,1007.31
2022-09-14T05:44:49.521Z,1007.26
2022-09-14T05:49:42.360Z,1007.25
2022-09-14T05:54:35.191Z,1007.26
2022-09-14T05:59:28.014Z,1007.27
2022-09-14T06:04:15.063Z,1007.3
2022-09-14T06:09:08.328Z,1007.24
2022-09-14T06:14:02.326Z,1007.21
2022-09-14T06:18:55.154Z,1007.17
2022-09-14T06:23:48.073Z,1007.11
2022-09-14T06:28:40.661Z,1007.09
2022-09-14T06:33:33.621Z,1007.11
2022-09-14T06:38:26.445Z,1007.1
2022-09-14T06:43:19.325Z,1007.01
2022-09-14T06:48:11.987Z,1007.03
2022-09-14T06:53:04.747Z,1006.97
2022-09-14T06:57:57.257Z,1006.96
2022-09-14T07:02:53.623Z,1006.99
2022-09-14T07:07:42.785Z,1007.02
2022-09-14T07:12:35.649Z,1007.08
2022-09-14T07:17:28.757Z,1007.11
2022-09-14T07:22:21.380Z,1007.08
2022-09-14T07:27:14.026Z,1007.05
2022-09-14T07:32:06.572Z,1007.15
2022-09-14T07:36:59.206Z,1007.09
2022-09-14T07:41:51.903Z,1007.06
2022-09-14T07:46:44.364Z,1007.09
2022-09-14T07:51:36.940Z,1007.07
2022-09-14T07:56:24.765Z,1007.04
2022-09-14T08:01:17.421Z,1006.98
2022-09-14T08:06:11.064Z,1006.98
2022-09-14T08:11:03.967Z,1006.97
2022-09-14T08:15:56.699Z,1006.93
2022-09-14T08:20:49.414Z,1006.98
2022-09-14T08:25:42.089Z,1006.93
2022-09-14T08:30:34.832Z,1006.95
2022-09-14T08:35:40.966Z,1006.92
2022-09-14T08:40:19.835Z,1006.88
2022-09-14T08:45:12.409Z,1006.86
2022-09-14T08:50:00.321Z,1006.87
2022-09-14T08:54:52.648Z,1006.92
2022-09-14T08:59:46.437Z,1006.87
2022-09-14T09:04:39.204Z,1006.87
2022-09-14T09:09:31.898Z,1006.85
2022-09-14T09:14:24.674Z,1006.84
2022-09-14T09:19:17.425Z,1006.82
2022-09-14T09:24:10.101Z,1006.8
2022-09-14T09:29:02.849Z,1006.76
2022-09-14T09:33:55.378Z,1006.68
2022-09-14T09:38:43.107Z,1006.64
2022-09-14T09:43:49.181Z,1006.65
2022-09-14T09:48:29.839Z,1006.72
2022-09-14T09:53:22.497Z,1006.82
2022-09-14T09:58:15.155Z,1006.84
2022-09-14T10:03:07.981Z,1006.77
2022-09-14T10:08:00.667Z,1006.79
2022-09-14T10:12:53.214Z,1006.82
2022-09-14T10:17:45.868Z,1006.67
2022-09-14T10:22:38.491Z,1006.72
2022-09-14T10:27:34.365Z,1006.66
2022-09-14T10:32:23.889Z,1006.57
2022-09-14T10:37:16.625Z,1006.58
2022-09-14T10:42:09.357Z,1006.6
2022-09-14T10:47:04.652Z,1006.6
2022-09-14T10:51:54.818Z,1006.6
2022-09-14T10:56:47.763Z,1006.56
2022-09-14T11:01:34.672Z,1006.5
2022-09-14T11:06:27.848Z,1006.47
2022-09-14T11:11:21.515Z,1006.48
2022-09-14T11:16:14.290Z,1006.42
2022-09-14T11:21:06.776Z,1006.34
2022-09-14T11:25:59.493Z,1006.26
2022-09-14T11:30:52.160Z,1006.11
2022-09-14T11:35:44.811Z,1006.05
2022-09-14T11:40:37.447Z,1006.01
2022-09-14T11:45:29.788Z,1005.98
2022-09-14T11:50:22.706Z,1006.01
2022-09-14T11:55:15.449Z,1005.95
2022-09-14T12:00:08.199Z,1005.93
2022-09-14T12:05:00.879Z,1005.78
2022-09-14T12:09:53.689Z,1005.82
2022-09-14T12:14:46.399Z,1005.87
2022-09-14T12:19:38.797Z,1005.84
2022-09-14T12:24:31.434Z,1005.84
2022-09-14T12:29:24.123Z,1005.79
2022-09-14T12:34:16.767Z,1005.82
2022-09-14T12:39:09.402Z,1005.77
2022-09-14T12:44:02.056Z,1005.74
2022-09-14T12:48:54.687Z,1005.79
2022-09-14T12:53:47.551Z,1005.74
2022-09-14T12:58:40.251Z,1005.78
2022-09-14T13:03:32.982Z,1005.72
2022-09-14T13:08:25.593Z,1005.68
2022-09-14T13:13:18.341Z,1005.59
2022-09-14T13:18:11.001Z,1005.55
2022-09-14T13:23:03.684Z,1005.59
2022-09-14T13:27:56.404Z,1005.45
2022-09-14T13:32:49.081Z,1005.42
2022-09-14T13:37:44.143Z,1005.46
2022-09-14T13:42:34.436Z,1005.5
2022-09-14T13:47:27.043Z,1005.45
2022-09-14T13:52:19.824Z,1005.46
2022-09-14T13:57:12.529Z,1005.51
2022-09-14T14:02:05.337Z,1005.47
2022-09-14T14:06:58.129Z,1005.38
2022-09-14T14:11:50.703Z,1005.29
2022-09-14T14:16:43.532Z,1005.25
2022-09-14T14:21:36.185Z,1005.14
2022-09-14T14:26:28.934Z,1005.11
2022-09-14T14:31:21.617Z,1005.06
2022-09-14T14:36:14.202Z,1005
2022-09-14T14:41:06.858Z,1004.96
2022-09-14T14:45:59.715Z,1004.95
2022-09-14T14:50:52.227Z,1004.95
2022-09-14T14:55:44.806Z,1004.82
2022-09-14T15:00:37.701Z,1004.76
2022-09-14T15:05:30.370Z,1004.71
2022-09-14T15:10:23.236Z,1004.72
2022-09-14T15:15:15.901Z,1004.74
2022-09-14T15:20:08.534Z,1004.66
2022-09-14T15:25:01.421Z,1004.58
2022-09-14T15:29:54.260Z,1004.46
2022-09-14T15:34:46.656Z,1004.41
2022-09-14T15:39:39.243Z,1004.37
2022-09-14T15:44:31.950Z,1004.29
2022-09-14T15:49:24.799Z,1004.31
2022-09-14T15:54:17.395Z,1004.24
2022-09-14T15:59:10.033Z,1004.18
2022-09-14T16:04:02.536Z,1004.24
2022-09-14T16:08:55.382Z,1004.21
2022-09-14T16:13:48.145Z,1004.19
2022-09-14T16:18:40.656Z,1004.09
2022-09-14T16:23:33.277Z,1003.96
2022-09-14T16:28:26.212Z,1003.86
2022-09-14T16:33:18.798Z,1003.82
2022-09-14T16:38:11.571Z,1003.77
2022-09-14T16:43:04.176Z,1003.75
2022-09-14T16:47:56.933Z,1003.69
2022-09-14T16:52:43.594Z,1003.65
2022-09-14T16:57:36.746Z,1003.68
2022-09-14T17:02:30.525Z,1003.71
2022-09-14T17:07:22.922Z,1003.61
2022-09-14T17:12:15.481Z,1003.57
2022-09-14T17:17:08.301Z,1003.66
2022-09-14T17:22:00.975Z,1003.68
2022-09-14T17:26:54.506Z,1003.66
2022-09-14T17:31:46.526Z,1003.69
2022-09-14T17:36:39.237Z,1003.48
2022-09-14T17:41:32.209Z,1003.43
2022-09-14T17:46:25.200Z,1003.47
2022-09-14T17:51:17.955Z,1003.69
2022-09-14T17:56:10.732Z,1003.61
2022-09-14T18:01:03.505Z,1003.53
2022-09-14T18:05:55.852Z,1003.6
2022-09-14T18:10:48.372Z,1003.59
2022-09-14T18:15:40.994Z,1003.81
2022-09-14T18:20:33.548Z,1003.85
2022-09-14T18:25:26.020Z,1003.98
2022-09-14T18:30:19.617Z,1003.97
2022-09-14T18:35:11.310Z,1004.05
2022-09-14T18:40:05.027Z,1004.11
2022-09-14T18:44:56.332Z,1004.28
2022-09-14T18:49:49.130Z,1004.08
2022-09-14T18:54:42.681Z,1004.18
2022-09-14T18:59:34.212Z,1004.22
2022-09-14T19:04:26.858Z,1004.41
2022-09-14T19:09:19.769Z,1004.36
2022-09-14T19:14:12.161Z,1004.43
2022-09-14T19:19:04.584Z,1004.43
2022-09-14T19:23:57.374Z,1004.53
2022-09-14T19:28:50.094Z,1004.55
2022-09-14T19:33:45.423Z,1004.62
2022-09-14T19:38:35.364Z,1004.68
2022-09-14T19:43:28.165Z,1004.56
2022-09-14T19:48:20.635Z,1004.52
2022-09-14T19:53:14.192Z,1004.64
2022-09-14T19:58:05.982Z,1004.8
2022-09-14T20:02:58.623Z,1004.8
2022-09-14T20:07:51.109Z,1004.85
2022-09-14T20:12:43.706Z,1004.92
2022-09-14T20:17:36.538Z,1004.89
2022-09-14T20:22:29.470Z,1004.78
2022-09-14T20:27:21.918Z,1005
2022-09-14T20:32:17.297Z,1004.96
2022-09-14T20:37:07.134Z,1005.06
2022-09-14T20:41:59.844Z,1004.89
2022-09-14T20:46:52.458Z,1004.84
2022-09-14T20:51:45.083Z,1004.85
2022-09-14T20:56:37.782Z,1005.08
2022-09-14T21:01:30.388Z,1005.13
2022-09-14T21:06:22.664Z,1005.19
2022-09-14T21:11:15.265Z,1005.31
2022-09-14T21:16:07.980Z,1005.37
2022-09-14T21:21:02.884Z,1005.4
2022-09-14T21:25:53.488Z,1005.39
2022-09-14T21:30:46.139Z,1005.44
2022-09-14T21:35:38.948Z,1005.55
2022-09-14T21:40:31.445Z,1005.63
2022-09-14T21:45:23.924Z,1005.58
2022-09-14T21:50:16.182Z,1005.64
2022-09-14T21:55:08.819Z,1005.65
2022-09-14T22:00:01.386Z,1005.49
2022-09-14T22:04:53.891Z,1005.41
2022-09-14T22:09:46.592Z,1005.38
2022-09-14T22:14:39.384Z,1005.38
2022-09-14T22:19:32.032Z,1005.52
2022-09-14T22:24:24.468Z,1005.48
2022-09-14T22:29:17.094Z,1005.37
2022-09-14T22:34:09.694Z,1005.32
2022-09-14T22:39:02.389Z,1005.31
2022-09-14T22:43:55.133Z,1005.5
2022-09-14T22:48:47.612Z,1005.36
2022-09-14T22:53:40.245Z,1005.51
2022-09-14T22:58:32.885Z,1005.54
2022-09-14T23:03:25.832Z,1005.54
2022-09-14T23:08:18.546Z,1005.49
2022-09-14T23:13:11.075Z,1005.55
2022-09-14T23:18:03.739Z,1005.57
2022-09-14T23:22:56.415Z,1005.58
2022-09-14T23:27:49.071Z,1005.58
2022-09-14T23:32:41.827Z,1005.61
2022-09-14T23:37:34.786Z,1005.56
2022-09-14T23:42:27.406Z,1005.63
2022-09-14T23:47:20.158Z,1005.7
2022-09-14T23:52:12.693Z,1005.58
2022-09-14T23:57:05.253Z,1005.48
